Aeroporto :
LOGIN :

Iscrizione | Disclaimer

   EN    FR    IT 

 










Sommario :    VFR   VFR Marginale   IFR   IFR Intensivo   IFR Molto Intensivo
Visibilità : 
Base nubi : 
>= 8 km
>= 3000ft
5 / 8 km
1000 / 3000 ft
1500m / 5 km
500 / 1000 ft
800 / 1500m
200 / 500 ft
< 800m
< 200 ft
Simboli :   Temporali  Nebbia  Neve Forte  Precipitazioni Forti  Vento > 20 kt
SIGMETs :   Varie  Temporali  Ghiacco  Turbolenza  Onda orograficha  Ceneri Vulcaniche







- Altitudine del aeroporto : 327 ft
- Codice IATA : BHX
- Carte del aeroporto


EGBB - Birmingham

ULTIMO METAR :
  • 202050Z 04009KT 9999 FEW014 BKN036 04/02 Q1008

METARs OBSOLETI :
  • 202020Z 05008KT 9999 SCT015 BKN041 04/02 Q1008
  • 201950Z 05008KT 9999 BKN017 04/02 Q1008
  • 201920Z 05009KT 9999 BKN017 04/02 Q1008
  • 201850Z 06010KT 020V090 9999 BKN016 04/02 Q1008
  • 201820Z 06010KT 9999 BKN016 04/02 Q1008

TAF TAF EGBB
Valido dal 20 a 18 ore il 21 a 18 ore UTC


201658Z 2018/2118 06012KT 9999 SCT010 BKN020
TEMPO 2018/2021 7000 -RA BKN010
BECMG 2021/2024 BKN010
PROB30
TEMPO 2021/2106 6000 SHRA BKN008
BECMG 2103/2106 13009KT
BECMG 2108/2111 SCT020
ATIS : +44 121 780 0910
Nessun NOTAM noto per questo aeroporto.
2 SIGMETs conosciuti per la FIR London (EGTT) :
 
Forte onda orograficha
EGTT SIGMET 04 VALID 202100/210100 EGRR
EGTT LONDON FIR SEV MTW FCST WI N5355 W00132 - N5232 W00304 - N5221 W00530 - N5500 W00530 - N5500 W00159 - N5355 W00132 FL030/120 MOV N 05KT NC=
Forte onda orograficha
EGTT SIGMET 03 VALID 201700/202100 EGRR
EGTT LONDON FIR SEV MTW FCST WI N5500 W00220 - N5322 W00134 - N5158 W00304 - N5149 W00510 - N5500 W00447 - N5500 W00220 FL030/120 MOV N 10KT NC=



MetMap, La meteo Aeronautica in un colpo d'occhio ! - Copyright ORBIFLY Dicembre 2007 - Disclaimer

ORBIFLY MET'MAP TEAM :

Programmazione e sviluppo : Alexandra Zaïnal
Concezione e sviluppo : Baudouin d'Aumeries
Co-Programmazione e sviluppo : Marc-Olivier Méhu
Supporto tecnico e logistico : Manuel Goepfert
Aiuto per la traduzione : Arnaldo La Scala

Contatto : metmap@orbifly.com




FONTI E CREDITI :

   NOAA